Time;durP1;ratioP1;P1;durP2;ratioP2;P2;SDS_P1;SDS_P2;PMS_P1;PMS_P2;Temp;Humidity;BMP_temperature;BMP_pressure;BME280_temperature;BME280_humidity;BME280_pressure;Samples;Min_cycle;Max_cycle;Signal;HPM_P1;HPM_P2
2022/12/14 00:28:48;;;;;;;36.40;17.20;;;;;;;-1.10;75.47;101093.72;5015420;28;20082;-90
2022/12/14 00:32:18;;;;;;;41.10;16.75;;;;;;;-1.19;76.38;101073.06;5016319;28;20047;-90
2022/12/14 00:35:23;;;;;;;34.83;16.95;;;;;;;-1.17;77.49;101117.84;5011837;28;20034;-90
2022/12/14 00:37:59;;;;;;;37.42;17.38;;;;;;;-1.16;77.23;101114.28;4997936;28;20034;-89
2022/12/14 00:53:43;;;;;;;48.88;22.85;;;;;;;-1.07;75.78;101093.56;5029322;28;20069;-91
2022/12/14 01:01:29;;;;;;;33.60;15.17;;;;;;;-1.55;75.00;101066.00;5049316;22;20041;-91
2022/12/14 01:04:20;;;;;;;29.85;14.27;;;;;;;-1.40;73.96;101095.22;4981626;28;20034;-91
2022/12/14 01:07:38;;;;;;;34.47;14.13;;;;;;;-1.33;74.13;101128.28;4982301;28;20034;-91
2022/12/14 01:10:30;;;;;;;32.47;14.75;;;;;;;-1.47;74.56;101099.09;4995775;28;20069;-91
2022/12/14 01:34:21;;;;;;;33.22;14.75;;;;;;;-1.62;73.06;101142.84;4294658;26;20050;-91
2022/12/14 01:58:53;;;;;;;27.50;12.55;;;;;;;-1.78;71.69;101096.09;5038000;23;20042;-91
2022/12/14 02:01:43;;;;;;;26.50;12.60;;;;;;;-1.44;71.41;101120.03;5012048;28;20095;-92
2022/12/14 02:04:56;;;;;;;25.77;12.02;;;;;;;-1.67;71.79;101108.78;4999734;28;20042;-90
2022/12/14 02:07:46;;;;;;;27.77;12.27;;;;;;;-1.65;71.74;101099.00;5031923;28;20093;-90
2022/12/14 02:45:17;;;;;;;26.95;12.75;;;;;;;-1.39;71.38;101107.47;3456060;23;20051;-91
2022/12/14 02:48:00;;;;;;;27.50;12.05;;;;;;;-1.60;71.60;101073.28;4904274;29;20044;-90
2022/12/14 03:30:43;;;;;;;35.78;16.60;;;;;;;-2.02;79.49;101140.22;5039451;22;20093;-90
2022/12/14 03:36:29;;;;;;;34.45;16.58;;;;;;;-2.03;78.94;101122.72;5034888;28;20050;-91
2022/12/14 03:39:28;;;;;;;40.03;16.58;;;;;;;-1.99;79.00;101124.31;5020512;28;20042;-90
2022/12/14 03:42:19;;;;;;;32.35;15.95;;;;;;;-2.01;78.92;101097.16;5003737;28;20050;-90
2022/12/14 03:45:24;;;;;;;42.05;16.48;;;;;;;-2.06;79.27;101104.44;5023406;28;20038;-90
2022/12/14 03:48:32;;;;;;;38.45;16.55;;;;;;;-1.91;78.62;101097.59;5011949;28;20110;-90
2022/12/14 03:51:21;;;;;;;36.35;15.65;;;;;;;-1.68;77.69;101100.97;5029448;28;20110;-89
2022/12/14 04:51:35;;;;;;;53.30;23.85;;;;;;;-0.98;71.92;101102.81;4065079;22;20111;-90
2022/12/14 04:54:26;;;;;;;55.58;23.80;;;;;;;-0.97;71.88;101082.56;5014509;28;20092;-89
2022/12/14 05:20:42;;;;;;;61.83;26.80;;;;;;;-0.76;70.02;101096.47;5129620;22;20061;-91
2022/12/14 05:23:08;;;;;;;60.20;27.90;;;;;;;-0.52;69.26;101104.91;5008339;28;20046;-87
2022/12/14 05:25:34;;;;;;;56.90;26.90;;;;;;;-0.55;69.15;101078.66;4976923;28;20117;-86
2022/12/14 05:28:02;;;;;;;65.30;26.05;;;;;;;-0.45;68.84;101091.31;4985332;28;20312;-86
2022/12/14 05:30:45;;;;;;;62.67;31.40;;;;;;;-0.30;68.75;101099.38;4986855;28;20041;-87
2022/12/14 05:33:20;;;;;;;59.25;26.85;;;;;;;-0.31;68.64;101087.94;4989248;28;20042;-86
2022/12/14 05:35:49;;;;;;;60.75;24.85;;;;;;;-0.10;68.44;101098.31;4985210;28;20037;-89
2022/12/14 09:06:59;;;;;;;29.48;16.38;;;;;;;9.73;53.74;101095.31;5028994;23;20049;-88
2022/12/14 09:25:25;;;;;;;24.23;13.03;;;;;;;8.92;57.11;101103.72;4163570;26;20762;-87
2022/12/14 10:07:15;;;;;;;18.07;9.70;;;;;;;8.78;55.19;101007.59;4665939;26;20310;-87
2022/12/14 10:10:01;;;;;;;16.70;8.85;;;;;;;9.64;52.93;101048.72;4939530;28;20295;-87
2022/12/14 10:12:30;;;;;;;13.93;8.60;;;;;;;9.15;53.21;101047.94;5003698;28;20046;-89
2022/12/14 10:15:20;;;;;;;22.75;8.68;;;;;;;9.15;53.31;101041.75;5002738;28;20058;-86
2022/12/14 10:18:07;;;;;;;16.52;9.63;;;;;;;9.26;53.62;101046.97;4989036;28;20046;-86
2022/12/14 10:20:47;;;;;;;14.02;9.25;;;;;;;9.23;53.38;101025.78;4986171;28;20046;-87
2022/12/14 10:23:19;;;;;;;11.30;6.22;;;;;;;8.70;54.02;101012.81;4976131;28;20047;-87
2022/12/14 10:25:50;;;;;;;10.23;5.55;;;;;;;8.81;53.85;101036.81;4979759;28;20066;-87
2022/12/14 10:28:40;;;;;;;8.20;4.70;;;;;;;9.36;52.48;101042.41;4981630;28;20058;-86
2022/12/14 10:31:09;;;;;;;7.13;4.45;;;;;;;9.85;50.71;101010.06;5007300;28;20042;-85
2022/12/14 10:33:39;;;;;;;9.60;4.43;;;;;;;10.37;48.95;101021.13;4989048;28;20502;-86
2022/12/14 10:36:43;;;;;;;6.40;4.05;;;;;;;11.25;47.12;101050.91;4968187;28;20136;-86
2022/12/14 10:39:50;;;;;;;8.60;4.28;;;;;;;11.22;47.06;101042.31;4992375;28;20114;-85
2022/12/14 10:42:26;;;;;;;7.88;4.00;;;;;;;11.06;47.21;101051.09;4969223;28;20050;-86
2022/12/14 10:44:58;;;;;;;5.68;3.88;;;;;;;10.43;48.00;101009.78;4977409;28;20129;-86
2022/12/14 10:47:37;;;;;;;6.82;4.38;;;;;;;10.09;49.02;101017.59;4985528;28;20046;-86
2022/12/14 10:50:40;;;;;;;6.47;4.25;;;;;;;10.71;48.38;101040.16;4965665;28;20061;-87
2022/12/14 10:53:11;;;;;;;7.80;4.70;;;;;;;13.49;42.47;101019.03;5006873;28;20044;-87
2022/12/14 10:55:40;;;;;;;7.38;4.70;;;;;;;14.74;39.21;100980.47;4950590;28;20141;-87
2022/12/14 10:58:07;;;;;;;6.15;3.90;;;;;;;15.60;37.36;100986.47;4962237;28;20109;-86
2022/12/14 11:00:33;;;;;;;13.32;4.10;;;;;;;14.06;39.32;100990.97;4977593;28;20138;-87
2022/12/14 11:02:59;;;;;;;6.50;4.30;;;;;;;13.76;40.07;100983.66;4979677;28;20074;-87
2022/12/14 11:05:46;;;;;;;7.57;4.47;;;;;;;13.02;41.71;100990.00;4963558;28;20459;-86
2022/12/14 11:08:37;;;;;;;5.30;3.58;;;;;;;11.40;44.96;101002.72;4991378;28;20066;-85
2022/12/14 11:11:12;;;;;;;6.10;3.75;;;;;;;11.01;45.99;101024.66;4994224;28;20047;-84
2022/12/14 11:13:38;;;;;;;6.28;4.18;;;;;;;11.02;46.21;101018.25;4977523;28;20510;-86
2022/12/14 11:16:33;;;;;;;7.05;4.18;;;;;;;11.11;46.06;101011.94;4971728;28;20068;-85
2022/12/14 11:19:00;;;;;;;6.47;4.25;;;;;;;10.74;47.09;100985.22;4975839;28;20481;-87
2022/12/14 11:21:39;;;;;;;6.10;4.20;;;;;;;11.07;46.27;100986.34;4967833;28;20538;-85
2022/12/14 11:24:06;;;;;;;6.60;3.85;;;;;;;12.08;44.66;100979.53;4950419;28;20053;-87
2022/12/14 11:26:42;;;;;;;6.97;3.90;;;;;;;12.19;43.46;100969.31;4975648;28;20058;-87
2022/12/14 11:29:26;;;;;;;6.95;3.75;;;;;;;11.61;45.19;100995.16;4997039;28;20126;-85
2022/12/14 11:31:53;;;;;;;6.82;4.47;;;;;;;11.18;46.52;100967.25;4981343;28;20048;-86
2022/12/14 11:34:38;;;;;;;6.53;4.20;;;;;;;11.62;46.65;100986.06;4985098;28;20719;-86
2022/12/14 11:37:21;;;;;;;7.07;4.30;;;;;;;11.36;46.08;100956.44;4980737;28;20052;-87
2022/12/14 11:39:55;;;;;;;7.82;4.45;;;;;;;11.51;46.74;101002.47;4968893;28;20529;-87
2022/12/14 11:42:21;;;;;;;6.10;4.20;;;;;;;12.38;44.95;100976.25;4958404;28;20069;-85
2022/12/14 11:44:48;;;;;;;6.25;3.88;;;;;;;12.55;44.21;100981.69;4975300;28;20046;-83
2022/12/14 11:47:22;;;;;;;6.43;4.60;;;;;;;11.38;46.45;100978.69;4983751;28;20125;-88
2022/12/14 11:49:56;;;;;;;8.25;5.10;;;;;;;10.72;48.05;100971.94;4969725;28;20038;-86
2022/12/14 11:52:49;;;;;;;8.48;5.07;;;;;;;10.50;49.90;100999.28;4967797;28;20055;-85
2022/12/14 11:55:25;;;;;;;8.35;4.90;;;;;;;10.20;50.30;100982.47;4973188;28;20049;-84
2022/12/14 11:57:57;;;;;;;7.57;5.00;;;;;;;9.69;51.21;100957.84;4964604;28;20098;-85
2022/12/14 12:00:24;;;;;;;7.80;5.00;;;;;;;9.64;52.49;101003.06;4977384;28;20137;-86
2022/12/14 12:03:01;;;;;;;7.97;4.68;;;;;;;9.84;52.07;100984.22;4999048;28;20069;-83
2022/12/14 12:05:40;;;;;;;7.38;4.53;;;;;;;10.75;49.40;100982.38;4985324;28;20046;-88
2022/12/14 12:08:33;;;;;;;8.18;4.97;;;;;;;11.12;48.94;100983.19;4971696;28;20136;-86
2022/12/14 12:11:03;;;;;;;6.38;4.28;;;;;;;10.58;50.16;100975.16;4979490;28;20058;-84
2022/12/14 12:13:39;;;;;;;11.65;4.55;;;;;;;10.60;50.15;100954.34;4977434;28;20054;-85
2022/12/14 12:16:12;;;;;;;10.00;5.03;;;;;;;10.78;50.13;100981.25;4968260;28;20034;-86
2022/12/14 12:18:58;;;;;;;8.68;4.93;;;;;;;11.64;48.34;100967.03;4994943;28;20038;-85
2022/12/14 12:21:25;;;;;;;10.48;3.97;;;;;;;11.15;48.74;100988.28;4962440;28;20077;-84
2022/12/14 12:24:12;;;;;;;7.68;4.22;;;;;;;10.67;49.65;100984.16;4960025;28;20058;-86
2022/12/14 12:27:10;;;;;;;5.75;4.00;;;;;;;9.82;52.10;100937.88;5000305;28;20054;-90
2022/12/14 12:30:06;;;;;;;9.70;4.70;;;;;;;10.95;50.69;100966.06;4978218;28;20109;-83
2022/12/14 12:32:52;;;;;;;7.32;4.43;;;;;;;10.74;50.30;100953.78;4978677;28;20049;-85
2022/12/14 12:35:29;;;;;;;7.32;4.18;;;;;;;10.72;50.70;100950.44;4969755;28;20046;-83
2022/12/14 12:38:08;;;;;;;6.38;4.28;;;;;;;10.41;51.32;100965.25;4971278;28;20138;-86
2022/12/14 12:40:59;;;;;;;6.53;4.03;;;;;;;9.83;52.65;100948.47;4992882;28;20050;-86
2022/12/14 12:43:53;;;;;;;6.93;3.80;;;;;;;9.13;54.72;100933.72;4996802;28;20104;-85
2022/12/14 12:46:28;;;;;;;6.47;4.28;;;;;;;9.18;54.99;100950.25;4958192;28;20053;-84
2022/12/14 12:49:04;;;;;;;6.85;3.55;;;;;;;9.24;55.39;100980.00;4982454;28;20052;-85
2022/12/14 12:51:44;;;;;;;6.47;3.88;;;;;;;9.11;55.92;100984.88;5000375;28;20078;-84
2022/12/14 12:54:42;;;;;;;7.03;3.85;;;;;;;8.64;56.53;100976.72;4962799;28;20054;-84
2022/12/14 12:57:11;;;;;;;7.20;3.47;;;;;;;8.55;56.59;100986.44;4957553;28;20041;-87
2022/12/14 12:59:49;;;;;;;5.93;3.17;;;;;;;8.16;57.90;100947.97;4980008;28;20050;-85
2022/12/14 13:02:27;;;;;;;5.80;3.08;;;;;;;8.10;59.04;100978.84;4971989;28;20102;-84
2022/12/14 13:04:54;;;;;;;7.75;3.30;;;;;;;7.65;59.58;100933.75;4974289;28;20163;-83
2022/12/14 13:07:44;;;;;;;5.53;3.40;;;;;;;8.03;59.72;100977.72;4983344;28;20049;-85
2022/12/14 13:10:21;;;;;;;6.55;3.22;;;;;;;8.00;59.60;100975.28;4985948;28;20038;-86
2022/12/14 13:12:58;;;;;;;7.72;3.70;;;;;;;8.07;59.87;100973.75;4988303;28;20046;-86
2022/12/14 13:15:31;;;;;;;6.85;3.80;;;;;;;8.07;59.83;100968.41;4991146;28;20035;-88
2022/12/14 13:18:36;;;;;;;8.10;4.13;;;;;;;7.86;60.01;100919.44;5019413;28;20042;-90
2022/12/14 13:21:36;;;;;;;5.60;3.45;;;;;;;8.13;59.54;100965.19;5013916;28;20046;-88
2022/12/14 13:24:05;;;;;;;7.40;3.83;;;;;;;7.92;60.22;100926.94;4991036;28;20050;-88
2022/12/14 13:44:45;;;;;;;7.20;3.13;;;;;;;7.49;61.79;100925.38;5004318;28;20065;-87
2022/12/14 14:22:30;;;;;;;4.20;2.50;;;;;;;7.61;62.05;100951.06;5326902;22;20049;-90
2022/12/14 15:07:08;;;;;;;9.95;4.60;;;;;;;7.64;62.56;100934.75;5003563;28;20422;-88
2022/12/14 15:09:53;;;;;;;5.57;2.60;;;;;;;7.57;62.59;100944.28;5007651;28;20138;-88
2022/12/14 15:12:42;;;;;;;5.10;3.35;;;;;;;7.63;63.13;100948.25;4964919;28;20046;-89
2022/12/14 15:15:20;;;;;;;6.07;3.47;;;;;;;7.55;63.43;100924.84;5002699;28;20046;-87
2022/12/14 15:17:46;;;;;;;6.00;3.30;;;;;;;7.53;63.89;100916.94;4967126;28;20050;-86
2022/12/14 15:20:30;;;;;;;4.82;2.88;;;;;;;7.52;64.08;100903.72;4971711;28;20457;-88
2022/12/14 15:23:05;;;;;;;4.95;2.72;;;;;;;7.46;64.44;100917.63;5014070;28;20109;-89
2022/12/14 15:25:59;;;;;;;10.25;3.20;;;;;;;7.57;64.21;100922.88;4980606;28;20124;-88
2022/12/14 15:33:45;;;;;;;5.95;3.10;;;;;;;7.69;64.74;100918.28;5002726;28;20104;-87
2022/12/14 15:41:45;;;;;;;4.13;2.47;;;;;;;7.67;65.49;100921.09;5025527;28;20285;-90
2022/12/14 15:44:21;;;;;;;6.28;3.08;;;;;;;7.60;65.86;100903.88;5024625;28;20105;-88
2022/12/14 15:46:56;;;;;;;7.32;3.75;;;;;;;7.46;66.29;100889.03;4989952;28;20033;-88
2022/12/14 15:50:09;;;;;;;6.30;2.88;;;;;;;7.70;65.55;100911.94;5005690;28;20055;-88
2022/12/14 15:52:58;;;;;;;5.28;3.25;;;;;;;7.77;65.09;100913.06;5009515;28;20046;-87
2022/12/14 16:18:54;;;;;;;12.13;3.47;;;;;;;7.74;67.77;100914.19;4980336;28;20316;-90
2022/12/14 16:21:43;;;;;;;6.45;3.60;;;;;;;7.68;67.47;100889.81;4957305;28;20056;-88
2022/12/14 16:24:57;;;;;;;6.57;3.58;;;;;;;7.57;67.67;100883.59;4930297;29;20046;-89
2022/12/14 16:27:26;;;;;;;;;;;;;;;7.83;67.52;100920.56;4945043;28;20119;-87
2022/12/14 16:45:43;;;;;;;6.40;3.83;;;;;;;8.01;67.04;100875.25;5028030;28;20046;-87
2022/12/14 16:48:22;;;;;;;4.70;3.05;;;;;;;7.85;66.33;100837.47;5032805;28;20042;-87
2022/12/14 16:50:50;;;;;;;7.18;3.78;;;;;;;7.90;66.41;100843.25;5016534;28;20030;-90
2022/12/14 16:53:47;;;;;;;9.07;3.78;;;;;;;8.08;66.45;100863.00;5016273;28;20049;-88
2022/12/14 17:00:03;;;;;;;9.35;3.60;;;;;;;7.99;68.25;100885.25;520235;26;20492;-89
2022/12/14 17:02:44;;;;;;;7.25;3.28;;;;;;;7.96;68.33;100882.81;4983061;28;20055;-90
2022/12/14 17:05:41;;;;;;;13.32;3.50;;;;;;;7.98;68.40;100883.53;4957152;28;20028;-89
2022/12/14 17:13:37;;;;;;;8.33;3.40;;;;;;;7.96;67.97;100864.94;5023048;23;20323;-89
2022/12/14 17:16:51;;;;;;;5.53;3.10;;;;;;;7.96;68.42;100848.88;5013674;28;20054;-89
2022/12/14 17:20:03;;;;;;;9.03;3.10;;;;;;;7.90;69.46;100861.97;5024755;28;20076;-91
2022/12/14 17:22:35;;;;;;;7.43;3.00;;;;;;;8.00;69.50;100871.69;5034520;28;20045;-89
2022/12/14 17:27:43;;;;;;;7.77;3.10;;;;;;;7.94;68.97;100868.75;5649031;22;20046;-90
2022/12/14 17:30:40;;;;;;;6.57;3.53;;;;;;;7.97;69.64;100876.50;5031439;28;20288;-90
2022/12/14 17:33:30;;;;;;;7.10;3.30;;;;;;;8.00;69.60;100849.44;5029904;28;20041;-88
2022/12/14 17:36:30;;;;;;;7.70;3.30;;;;;;;7.91;69.89;100840.41;5010309;28;20030;-89
2022/12/14 17:38:57;;;;;;;6.30;3.05;;;;;;;7.92;69.81;100852.81;5036425;28;20466;-87
2022/12/14 17:41:28;;;;;;;5.63;2.67;;;;;;;8.12;69.99;100867.06;5041736;28;20066;-89
2022/12/14 17:43:56;;;;;;;4.35;2.65;;;;;;;7.81;69.98;100828.84;5017996;28;20021;-88
2022/12/14 17:46:24;;;;;;;6.45;3.40;;;;;;;8.09;69.96;100853.13;5008229;28;20111;-88
2022/12/14 17:49:11;;;;;;;7.63;3.40;;;;;;;8.03;70.04;100851.84;4982495;28;20109;-87
2022/12/14 18:16:39;;;;;;;5.65;3.15;;;;;;;8.09;70.90;100804.91;2038374;23;20050;-90
2022/12/14 18:27:57;;;;;;;5.20;3.05;;;;;;;8.44;69.57;100831.16;5031381;28;20303;-93
2022/12/14 18:31:24;;;;;;;5.53;2.75;;;;;;;8.15;70.40;100794.50;5233762;22;20050;-93
2022/12/14 18:54:57;;;;;;;5.00;2.70;;;;;;;8.34;70.50;100807.00;1603460;23;20407;-88
2022/12/14 18:58:16;;;;;;;4.60;2.40;;;;;;;8.45;69.52;100843.53;4987012;28;20050;-87
2022/12/14 19:00:58;;;;;;;6.63;3.00;;;;;;;8.43;70.01;100829.47;5020977;28;20042;-89
2022/12/14 19:03:33;;;;;;;5.43;2.88;;;;;;;8.39;69.68;100799.38;5030959;28;20069;-87
2022/12/14 19:21:40;;;;;;;7.72;2.67;;;;;;;8.34;68.70;100771.34;4589020;23;20056;-89
2022/12/14 19:27:07;;;;;;;4.88;2.03;;;;;;;8.35;69.27;100773.88;4796381;26;20115;-88
2022/12/14 19:29:36;;;;;;;7.90;2.65;;;;;;;8.41;68.99;100767.13;5001717;28;20046;-86
2022/12/14 19:32:03;;;;;;;7.70;3.10;;;;;;;8.47;68.52;100771.06;4950705;28;20035;-88
2022/12/14 19:34:30;;;;;;;4.47;2.55;;;;;;;8.56;68.56;100787.13;4989227;28;20030;-88
2022/12/14 19:37:00;;;;;;;3.53;2.05;;;;;;;8.36;68.73;100764.03;4972444;28;20046;-87
2022/12/14 19:39:33;;;;;;;6.75;2.95;;;;;;;8.53;68.57;100782.06;4981824;28;20038;-88
2022/12/14 19:41:58;;;;;;;5.40;2.30;;;;;;;8.36;68.34;100753.31;4960936;28;20050;-84
2022/12/14 19:44:24;;;;;;;4.53;2.40;;;;;;;8.41;67.65;100773.34;4969090;28;20046;-84
2022/12/14 19:46:49;;;;;;;3.78;2.10;;;;;;;8.44;68.05;100766.84;4960115;28;20433;-87
2022/12/14 19:49:15;;;;;;;5.28;2.20;;;;;;;8.36;67.35;100755.97;4976819;28;20034;-84
2022/12/14 19:51:42;;;;;;;7.10;2.60;;;;;;;8.41;67.15;100762.63;4972653;28;20049;-88
2022/12/14 19:54:10;;;;;;;3.70;2.15;;;;;;;8.26;67.87;100739.91;4974994;28;20038;-87
2022/12/14 19:56:37;;;;;;;7.15;3.67;;;;;;;8.49;68.38;100775.28;4989822;28;20038;-86
2022/12/14 19:59:03;;;;;;;8.32;2.97;;;;;;;8.52;68.85;100764.31;4973862;28;20036;-86
2022/12/14 20:01:36;;;;;;;10.73;2.85;;;;;;;8.28;69.56;100723.69;4956746;28;20045;-87
2022/12/14 20:04:05;;;;;;;7.25;2.58;;;;;;;8.32;68.52;100741.19;4987360;28;20073;-89
2022/12/14 20:06:32;;;;;;;5.10;2.45;;;;;;;8.37;67.91;100752.31;4977196;28;20039;-87
2022/12/14 20:09:04;;;;;;;4.68;2.45;;;;;;;8.30;67.58;100746.66;4952761;28;20039;-88
2022/12/14 20:11:30;;;;;;;7.55;3.30;;;;;;;8.23;67.17;100730.31;4979074;28;20050;-85
2022/12/14 20:13:58;;;;;;;5.55;2.50;;;;;;;8.35;66.50;100757.78;4979922;28;20053;-87
2022/12/14 20:16:24;;;;;;;3.92;2.35;;;;;;;8.18;66.72;100732.59;4955173;28;20038;-87
2022/12/14 20:18:50;;;;;;;;;;;;;;;8.38;67.19;100778.09;4993600;28;20498;-86
2022/12/14 20:21:17;;;;;;;8.13;2.72;;;;;;;8.14;66.86;100733.88;4970905;28;19918;-85
2022/12/14 20:23:47;;;;;;;6.43;2.72;;;;;;;8.36;67.05;100764.03;4975534;28;20159;-86
2022/12/14 20:26:16;;;;;;;7.68;2.20;;;;;;;8.13;66.65;100710.75;4962181;28;20042;-86
2022/12/14 20:28:47;;;;;;;6.07;2.60;;;;;;;8.45;66.74;100745.28;4950755;28;20238;-86
2022/12/14 20:31:14;;;;;;;3.97;2.20;;;;;;;8.30;67.38;100733.28;4968835;28;20116;-88
2022/12/14 20:33:39;;;;;;;6.95;2.53;;;;;;;8.25;67.25;100720.31;4967080;28;20049;-85
2022/12/14 20:36:13;;;;;;;8.82;2.70;;;;;;;8.48;67.95;100762.88;4982181;28;20039;-84
2022/12/14 20:38:40;;;;;;;6.47;3.10;;;;;;;8.43;67.72;100736.53;4999963;28;20042;-86
2022/12/14 20:41:08;;;;;;;5.97;2.72;;;;;;;8.38;68.30;100720.03;4989243;28;20129;-85
2022/12/14 20:43:35;;;;;;;10.07;2.95;;;;;;;8.35;68.38;100720.28;4953660;28;20043;-85
2022/12/14 20:46:02;;;;;;;6.35;2.47;;;;;;;8.54;68.51;100740.84;4974220;28;20081;-83
2022/12/14 20:48:28;;;;;;;6.00;3.03;;;;;;;8.52;68.57;100732.16;4987428;28;20034;-83
2022/12/14 20:50:59;;;;;;;7.88;2.50;;;;;;;8.54;68.67;100727.44;4937896;28;20057;-85
2022/12/14 20:53:28;;;;;;;5.53;2.80;;;;;;;8.50;68.87;100718.03;4959238;28;20069;-85
2022/12/14 20:56:01;;;;;;;6.13;2.30;;;;;;;8.50;68.65;100717.16;4973129;28;20042;-86
2022/12/14 20:58:28;;;;;;;6.55;2.80;;;;;;;8.51;69.07;100738.47;4991631;28;20046;-85
2022/12/14 21:00:54;;;;;;;7.03;2.85;;;;;;;8.41;69.15;100718.91;4958624;28;20022;-84
2022/12/14 21:03:22;;;;;;;8.52;2.53;;;;;;;8.48;69.17;100725.38;4962479;28;20061;-83
2022/12/14 21:05:49;;;;;;;8.43;2.42;;;;;;;8.34;69.30;100696.34;4967334;28;20176;-83
2022/12/14 21:08:14;;;;;;;5.20;2.40;;;;;;;8.41;69.18;100703.69;4954307;28;20053;-81
2022/12/14 21:10:43;;;;;;;6.93;2.10;;;;;;;8.40;69.37;100696.63;4994580;28;20133;-82
2022/12/14 21:13:10;;;;;;;6.15;2.70;;;;;;;8.54;69.49;100713.22;4975444;28;20756;-82
2022/12/14 21:15:36;;;;;;;7.25;2.38;;;;;;;8.52;69.31;100686.59;4988229;28;20061;-85
2022/12/14 21:18:03;;;;;;;5.90;2.20;;;;;;;8.37;69.22;100679.97;4956369;28;20050;-85
2022/12/14 21:20:28;;;;;;;5.88;2.35;;;;;;;8.56;68.97;100696.00;4960112;28;20050;-86
2022/12/14 21:22:56;;;;;;;6.82;2.63;;;;;;;8.59;68.59;100701.09;4975835;28;20549;-86
2022/12/14 21:25:23;;;;;;;5.90;2.10;;;;;;;8.54;68.27;100692.63;4971883;28;20137;-85
2022/12/14 21:27:50;;;;;;;4.15;2.00;;;;;;;8.52;68.31;100678.56;4970199;28;20058;-86
2022/12/14 21:30:20;;;;;;;5.30;2.67;;;;;;;8.54;68.13;100671.19;4993316;28;20081;-87
2022/12/14 21:32:48;;;;;;;6.22;2.47;;;;;;;8.56;68.50;100669.19;4984838;28;20043;-83
2022/12/14 21:35:16;;;;;;;4.05;2.13;;;;;;;8.41;68.18;100639.38;4968161;28;20061;-84
2022/12/14 21:37:47;;;;;;;6.38;2.20;;;;;;;8.42;67.82;100635.69;4985461;28;20490;-85
2022/12/14 21:42:09;;;;;;;7.75;2.85;;;;;;;8.48;68.20;100647.69;4979575;28;20046;-87
2022/12/14 21:43:03;;;;;;;6.15;2.55;;;;;;;8.52;68.27;100635.69;4976731;28;20416;-85
2022/12/14 21:45:30;;;;;;;7.78;4.25;;;;;;;8.40;68.78;100624.28;4973927;28;20038;-85
2022/12/14 21:48:01;;;;;;;7.47;3.17;;;;;;;8.59;68.64;100660.88;4956721;28;20117;-85
2022/12/14 21:50:27;;;;;;;6.82;2.60;;;;;;;8.57;68.50;100636.06;4960545;28;20506;-85
2022/12/14 21:52:52;;;;;;;6.80;2.75;;;;;;;8.42;68.04;100600.03;4948783;28;20058;-87
2022/12/14 21:55:18;;;;;;;6.43;2.63;;;;;;;8.58;68.19;100631.53;4979613;28;20038;-85
2022/12/14 22:00:37;;;;;;;7.57;2.67;;;;;;;8.43;68.70;100589.16;4959151;28;20064;-86
2022/12/14 22:03:06;;;;;;;5.25;2.30;;;;;;;8.68;69.09;100613.56;4942967;28;20301;-84
2022/12/14 22:05:31;;;;;;;4.07;2.13;;;;;;;8.64;68.75;100582.72;4996728;28;20042;-85
2022/12/14 22:08:01;;;;;;;6.28;2.40;;;;;;;8.60;68.76;100582.16;4958529;28;20152;-82
2022/12/14 22:10:29;;;;;;;8.23;2.55;;;;;;;8.57;68.11;100566.41;4991823;28;20050;-85
2022/12/14 22:13:01;;;;;;;7.15;2.35;;;;;;;8.63;67.62;100552.38;4976148;28;20039;-84
2022/12/14 22:15:27;;;;;;;6.40;2.45;;;;;;;8.63;68.34;100559.56;4960992;28;20046;-83
2022/12/14 22:17:55;;;;;;;7.85;2.70;;;;;;;8.73;67.95;100540.75;4960799;28;20073;-84
2022/12/14 22:20:26;;;;;;;5.80;2.25;;;;;;;8.66;68.15;100530.66;4969764;28;20156;-84
2022/12/14 22:22:58;;;;;;;5.95;2.83;;;;;;;8.68;68.55;100540.38;4969683;28;20510;-83
2022/12/14 22:25:26;;;;;;;5.65;2.22;;;;;;;8.55;68.25;100522.81;4952058;28;20483;-84
2022/12/14 22:27:53;;;;;;;9.65;3.03;;;;;;;8.78;68.71;100557.22;4968383;28;20263;-85
2022/12/14 22:30:20;;;;;;;4.95;2.22;;;;;;;8.82;69.64;100569.31;4966592;28;20078;-83
2022/12/14 22:32:47;;;;;;;5.65;2.33;;;;;;;8.77;69.90;100552.84;4970881;28;20042;-82
2022/12/14 22:35:15;;;;;;;6.45;2.40;;;;;;;8.89;69.71;100557.00;4967628;28;20105;-84
2022/12/14 22:37:55;;;;;;;4.28;2.20;;;;;;;8.47;69.81;100503.13;4972031;28;20066;-84
2022/12/14 22:40:21;;;;;;;4.32;2.28;;;;;;;8.50;69.72;100502.81;4972061;28;20523;-84
2022/12/14 22:42:47;;;;;;;5.22;2.17;;;;;;;8.57;69.63;100499.41;4967757;28;20069;-84
2022/12/14 22:45:12;;;;;;;5.63;2.30;;;;;;;8.62;70.17;100494.44;4959439;28;20039;-83
2022/12/14 22:47:46;;;;;;;7.25;2.22;;;;;;;8.76;69.73;100503.78;4976987;28;20034;-84
2022/12/14 22:50:12;;;;;;;4.38;2.17;;;;;;;8.90;69.54;100521.16;4976327;28;20418;-82
2022/12/14 22:52:39;;;;;;;8.98;2.97;;;;;;;8.73;69.95;100481.78;4965550;28;20042;-86
2022/12/14 22:55:07;;;;;;;6.28;2.15;;;;;;;8.90;70.16;100509.56;4977302;28;20062;-83
2022/12/14 22:57:40;;;;;;;6.50;2.15;;;;;;;8.77;70.86;100483.16;4987518;28;20038;-82
2022/12/14 23:00:10;;;;;;;7.78;2.53;;;;;;;8.92;70.80;100496.84;4995112;28;20077;-85
2022/12/14 23:02:36;;;;;;;5.80;2.38;;;;;;;8.69;70.96;100445.59;4966215;28;20118;-82
2022/12/14 23:05:10;;;;;;;7.15;2.60;;;;;;;8.82;70.81;100460.25;4971458;28;20078;-84
2022/12/14 23:07:36;;;;;;;11.55;2.53;;;;;;;8.81;70.99;100463.09;4998989;28;20038;-84
